createdAt,value
2023-02-02T00:02:50.030Z,1.70
2023-02-02T00:06:53.589Z,1.72
2023-02-02T00:10:57.599Z,1.75
2023-02-02T00:15:01.170Z,1.78
2023-02-02T00:19:08.026Z,1.81
2023-02-02T00:23:11.293Z,1.84
2023-02-02T00:27:14.600Z,1.89
2023-02-02T00:31:17.857Z,1.90
2023-02-02T00:35:25.075Z,1.92
2023-02-02T00:39:29.864Z,1.96
2023-02-02T00:43:32.674Z,1.95
2023-02-02T00:47:35.709Z,1.96
2023-02-02T00:51:40.726Z,1.95
2023-02-02T00:55:44.152Z,1.96
2023-02-02T00:59:47.403Z,1.98
2023-02-02T01:03:51.720Z,2.00
2023-02-02T01:07:56.391Z,2.02
2023-02-02T01:11:59.774Z,2.03
2023-02-02T01:16:04.017Z,2.05
2023-02-02T01:20:17.107Z,2.08
2023-02-02T01:24:21.318Z,2.09
2023-02-02T01:28:26.506Z,2.08
2023-02-02T01:32:29.712Z,2.08
2023-02-02T01:36:33.134Z,2.08
2023-02-02T01:40:37.661Z,2.10
2023-02-02T01:45:19.716Z,2.14
2023-02-02T01:49:23.596Z,2.16
2023-02-02T01:53:29.598Z,2.17
2023-02-02T01:57:39.199Z,2.18
2023-02-02T02:01:43.137Z,2.18
2023-02-02T02:05:50.552Z,2.19
2023-02-02T02:09:53.561Z,2.17
2023-02-02T02:14:29.822Z,2.20
2023-02-02T02:18:42.382Z,2.25
2023-02-02T02:23:22.304Z,2.22
2023-02-02T02:28:07.913Z,2.29
2023-02-02T02:32:28.945Z,2.32
2023-02-02T02:36:40.480Z,2.36
2023-02-02T02:40:49.361Z,2.37
2023-02-02T02:44:54.669Z,2.40
2023-02-02T02:49:01.324Z,2.43
2023-02-02T02:53:09.556Z,2.46
2023-02-02T02:57:32.082Z,2.52
2023-02-02T03:01:46.003Z,2.53
2023-02-02T03:05:57.141Z,2.52
2023-02-02T03:10:02.247Z,2.56
2023-02-02T03:14:09.824Z,2.58
2023-02-02T03:18:15.584Z,2.58
2023-02-02T03:22:21.310Z,2.55
2023-02-02T03:26:24.608Z,2.56
2023-02-02T03:30:29.291Z,2.56
2023-02-02T03:34:34.601Z,2.59
2023-02-02T03:38:39.076Z,2.59
2023-02-02T03:42:42.387Z,2.58
2023-02-02T03:46:45.474Z,2.59
2023-02-02T03:50:48.676Z,2.59
2023-02-02T03:54:53.287Z,2.61
2023-02-02T03:58:56.516Z,2.58
2023-02-02T04:03:00.288Z,2.58
2023-02-02T04:07:03.849Z,2.57
2023-02-02T04:11:11.424Z,2.58
2023-02-02T04:15:14.580Z,2.55
2023-02-02T04:19:18.241Z,2.53
2023-02-02T04:23:20.964Z,2.52
2023-02-02T04:27:25.528Z,2.51
2023-02-02T04:31:30.207Z,2.46
2023-02-02T04:35:33.415Z,2.43
2023-02-02T04:39:36.706Z,2.43
2023-02-02T04:43:41.614Z,2.43
2023-02-02T04:47:44.631Z,2.43
2023-02-02T04:51:47.863Z,2.42
2023-02-02T04:55:51.045Z,2.41
2023-02-02T04:59:55.615Z,2.43
2023-02-02T05:03:59.236Z,2.46
2023-02-02T05:08:02.163Z,2.45
2023-02-02T05:12:05.443Z,2.47
2023-02-02T05:16:10.147Z,2.44
2023-02-02T05:20:14.328Z,2.42
2023-02-02T05:24:17.857Z,2.43
2023-02-02T05:28:24.712Z,2.45
2023-02-02T05:32:30.103Z,2.41
2023-02-02T05:36:33.310Z,2.40
2023-02-02T05:40:37.680Z,2.38
2023-02-02T05:44:43.721Z,2.37
2023-02-02T05:48:48.223Z,2.22
2023-02-02T05:52:51.436Z,1.99
2023-02-02T05:56:56.280Z,1.73
2023-02-02T06:00:59.268Z,1.69
2023-02-02T06:05:03.957Z,1.82
2023-02-02T06:09:07.951Z,2.08
2023-02-02T06:13:10.753Z,2.23
2023-02-02T06:17:13.849Z,2.33
2023-02-02T06:21:20.048Z,2.37
2023-02-02T06:25:23.429Z,2.36
2023-02-02T06:29:26.451Z,2.39
2023-02-02T06:33:29.419Z,2.44
2023-02-02T06:37:34.398Z,2.49
2023-02-02T06:41:37.432Z,2.41
2023-02-02T06:45:40.490Z,2.34
2023-02-02T06:49:43.431Z,2.28
2023-02-02T06:53:49.754Z,2.28
2023-02-02T06:57:58.100Z,2.29
2023-02-02T07:02:03.881Z,2.21
2023-02-02T07:06:14.753Z,2.20
2023-02-02T07:11:13.236Z,2.17
2023-02-02T07:14:43.622Z,2.15
2023-02-02T07:18:49.853Z,2.16
2023-02-02T07:22:53.092Z,2.10
2023-02-02T07:27:00.338Z,1.97
2023-02-02T07:31:13.677Z,1.86
2023-02-02T07:35:17.279Z,1.78
2023-02-02T07:39:20.555Z,1.76
2023-02-02T07:43:25.111Z,1.81
2023-02-02T07:47:28.130Z,1.87
2023-02-02T07:51:31.396Z,1.91
2023-02-02T07:55:34.492Z,1.88
2023-02-02T07:59:38.702Z,1.97
2023-02-02T08:03:43.183Z,2.02
2023-02-02T08:07:46.328Z,2.04
2023-02-02T08:11:49.359Z,2.13
2023-02-02T08:15:53.665Z,2.18
2023-02-02T08:19:58.365Z,2.24
2023-02-02T08:24:02.406Z,2.36
2023-02-02T08:28:06.586Z,2.45
2023-02-02T08:32:11.228Z,2.48
2023-02-02T08:36:15.732Z,2.50
2023-02-02T08:40:19.668Z,2.54
2023-02-02T08:44:22.849Z,2.59
2023-02-02T08:48:29.809Z,2.67
2023-02-02T08:52:34.928Z,2.73
2023-02-02T08:56:37.807Z,2.81
2023-02-02T09:00:40.997Z,2.91
2023-02-02T09:04:47.283Z,2.96
2023-02-02T09:08:50.371Z,2.94
2023-02-02T09:12:53.669Z,2.81
2023-02-02T09:16:56.720Z,2.78
2023-02-02T09:21:04.421Z,2.73
2023-02-02T09:25:08.069Z,2.69
2023-02-02T09:29:15.299Z,2.67
2023-02-02T09:33:18.396Z,2.72
2023-02-02T09:37:22.971Z,2.78
2023-02-02T09:41:56.281Z,2.84
2023-02-02T09:46:10.486Z,2.86
2023-02-02T09:50:19.948Z,2.82
2023-02-02T09:54:30.164Z,2.80
2023-02-02T09:58:36.063Z,2.77
2023-02-02T10:02:45.224Z,2.73
2023-02-02T10:06:52.059Z,2.76
2023-02-02T10:10:56.584Z,2.79
2023-02-02T10:15:06.713Z,2.75
2023-02-02T10:19:14.147Z,2.74
2023-02-02T10:23:30.768Z,2.85
2023-02-02T10:27:44.911Z,2.87
2023-02-02T10:32:03.451Z,3.00
2023-02-02T10:36:17.633Z,3.22
2023-02-02T10:40:34.631Z,3.51
2023-02-02T10:44:46.852Z,3.62
2023-02-02T10:48:53.073Z,3.60
2023-02-02T10:53:01.648Z,3.46
2023-02-02T10:57:09.088Z,3.35
2023-02-02T11:01:18.392Z,3.32
2023-02-02T11:05:41.880Z,3.25
2023-02-02T11:09:46.884Z,3.23
2023-02-02T11:13:55.185Z,3.23
2023-02-02T11:18:16.085Z,3.23
2023-02-02T11:22:28.920Z,3.24
2023-02-02T11:26:44.795Z,3.23
2023-02-02T11:30:52.623Z,3.33
2023-02-02T11:35:17.466Z,3.37
2023-02-02T11:39:22.571Z,3.31
2023-02-02T11:43:30.621Z,3.33
2023-02-02T11:47:35.173Z,3.19
2023-02-02T11:51:39.844Z,3.13
2023-02-02T11:55:45.617Z,3.06
2023-02-02T11:59:52.517Z,3.03
2023-02-02T12:03:57.370Z,3.01
2023-02-02T12:08:02.519Z,3.04
2023-02-02T12:12:20.916Z,3.07
2023-02-02T12:16:38.437Z,3.11
2023-02-02T12:20:50.965Z,3.06
2023-02-02T12:25:00.390Z,3.01
2023-02-02T12:29:30.990Z,3.03
2023-02-02T12:33:42.541Z,3.06
2023-02-02T12:37:55.754Z,3.08
2023-02-02T12:42:22.031Z,3.11
2023-02-02T12:46:48.240Z,3.15
2023-02-02T12:51:01.217Z,3.10
2023-02-02T12:55:24.933Z,3.14
2023-02-02T12:59:48.888Z,3.32
2023-02-02T13:04:07.438Z,3.42
2023-02-02T13:08:14.465Z,3.30
2023-02-02T13:12:21.972Z,2.95
2023-02-02T13:16:33.097Z,2.75
2023-02-02T13:20:45.316Z,3.00
2023-02-02T13:24:53.136Z,3.29
2023-02-02T13:29:01.405Z,3.55
2023-02-02T13:33:12.977Z,3.73
2023-02-02T13:37:23.332Z,3.86
2023-02-02T13:41:27.276Z,3.82
2023-02-02T13:45:52.492Z,3.71
2023-02-02T13:50:05.911Z,3.64
2023-02-02T13:54:51.036Z,3.51
2023-02-02T13:59:16.840Z,3.29
2023-02-02T14:03:38.659Z,3.25
2023-02-02T14:07:45.331Z,3.07
2023-02-02T14:11:58.751Z,2.85
2023-02-02T14:16:05.597Z,2.72
2023-02-02T14:20:45.042Z,2.55
2023-02-02T14:24:51.976Z,2.53
2023-02-02T14:28:54.931Z,2.71
2023-02-02T14:33:39.673Z,2.95
2023-02-02T14:37:53.041Z,3.04
2023-02-02T14:42:36.706Z,2.99
2023-02-02T14:46:44.573Z,2.92
2023-02-02T14:50:52.108Z,2.89
2023-02-02T14:54:55.029Z,2.86
2023-02-02T14:59:03.005Z,2.74
2023-02-02T15:03:39.752Z,2.60
2023-02-02T15:07:54.646Z,2.52
2023-02-02T15:12:17.052Z,2.46
2023-02-02T15:16:29.059Z,2.43
2023-02-02T15:20:36.444Z,2.43
2023-02-02T15:24:41.715Z,2.37
2023-02-02T15:28:58.546Z,2.30
2023-02-02T15:33:11.954Z,2.20
2023-02-02T15:37:21.667Z,2.15
2023-02-02T15:41:28.560Z,1.99
2023-02-02T15:45:44.808Z,1.84
2023-02-02T15:49:57.332Z,1.67
2023-02-02T15:54:01.618Z,1.37
2023-02-02T15:58:05.276Z,1.20
2023-02-02T16:02:26.465Z,1.02
2023-02-02T16:06:34.819Z,0.85
2023-02-02T16:10:37.807Z,0.68
2023-02-02T16:14:42.882Z,0.65
2023-02-02T16:18:47.584Z,0.68
2023-02-02T16:22:52.830Z,0.68
2023-02-02T16:26:59.282Z,0.80
2023-02-02T16:31:03.736Z,0.81
2023-02-02T16:35:09.910Z,0.80
2023-02-02T16:39:26.016Z,0.84
2023-02-02T16:43:30.562Z,0.80
2023-02-02T16:47:37.901Z,0.69
2023-02-02T16:51:43.307Z,0.73
2023-02-02T16:55:51.555Z,0.80
2023-02-02T16:59:57.965Z,0.94
2023-02-02T17:04:02.324Z,1.09
2023-02-02T17:08:09.466Z,1.16
2023-02-02T17:12:35.188Z,1.22
2023-02-02T17:16:38.574Z,1.26
2023-02-02T17:20:43.366Z,1.29
2023-02-02T17:24:48.172Z,1.33
2023-02-02T17:28:57.309Z,1.36
2023-02-02T17:33:00.581Z,1.37
2023-02-02T17:37:03.447Z,1.37
2023-02-02T17:41:07.882Z,1.35
2023-02-02T17:45:22.631Z,1.33
2023-02-02T17:49:25.842Z,1.29
2023-02-02T17:53:33.375Z,1.39
2023-02-02T17:57:38.397Z,1.43
2023-02-02T18:01:46.657Z,1.51
2023-02-02T18:05:50.405Z,1.47
2023-02-02T18:09:55.702Z,1.48
2023-02-02T18:13:59.166Z,1.48
2023-02-02T18:18:04.337Z,1.49
2023-02-02T18:22:10.642Z,1.64
2023-02-02T18:26:19.711Z,1.56
2023-02-02T18:30:25.944Z,1.57
2023-02-02T18:34:32.673Z,1.47
2023-02-02T18:38:36.165Z,1.45
2023-02-02T18:42:40.055Z,1.48
2023-02-02T18:46:43.349Z,1.51
2023-02-02T18:50:48.291Z,1.51
2023-02-02T18:54:54.414Z,1.51
2023-02-02T18:58:58.892Z,1.48
2023-02-02T19:03:04.341Z,1.49
2023-02-02T19:07:26.366Z,1.54
2023-02-02T19:11:39.207Z,1.49
2023-02-02T19:15:45.037Z,1.51
2023-02-02T19:19:48.258Z,1.52
2023-02-02T19:23:52.994Z,1.52
2023-02-02T19:27:56.284Z,1.51
2023-02-02T19:32:02.981Z,1.49
2023-02-02T19:36:07.503Z,1.52
2023-02-02T19:40:21.346Z,1.46
2023-02-02T19:44:27.099Z,1.48
2023-02-02T19:48:36.729Z,1.46
2023-02-02T19:52:40.644Z,1.47
2023-02-02T19:56:45.284Z,1.54
2023-02-02T20:00:49.906Z,1.48
2023-02-02T20:05:03.920Z,1.47
2023-02-02T20:09:15.695Z,1.44
2023-02-02T20:13:22.283Z,1.43
2023-02-02T20:17:32.944Z,1.41
2023-02-02T20:21:40.183Z,1.37
2023-02-02T20:25:44.469Z,1.37
2023-02-02T20:29:50.634Z,1.34
2023-02-02T20:33:58.379Z,1.24
2023-02-02T20:38:03.627Z,1.22
2023-02-02T20:42:07.341Z,1.04
2023-02-02T20:46:11.992Z,0.96
2023-02-02T20:50:19.935Z,0.86
2023-02-02T20:54:23.436Z,0.85
2023-02-02T20:58:26.617Z,0.85
2023-02-02T21:02:31.377Z,0.85
2023-02-02T21:06:34.741Z,0.86
2023-02-02T21:10:38.064Z,0.86
2023-02-02T21:14:41.705Z,0.83
2023-02-02T21:18:47.536Z,0.79
2023-02-02T21:22:51.195Z,0.78
2023-02-02T21:26:54.367Z,0.82
2023-02-02T21:31:02.709Z,0.86
2023-02-02T21:35:08.035Z,0.87
2023-02-02T21:39:21.962Z,0.86
2023-02-02T21:43:28.137Z,0.76
2023-02-02T21:47:35.279Z,0.63
2023-02-02T21:51:39.693Z,0.67
2023-02-02T21:55:46.458Z,0.64
2023-02-02T21:59:52.565Z,0.65
2023-02-02T22:03:55.551Z,0.64
2023-02-02T22:08:00.562Z,0.63
2023-02-02T22:12:11.265Z,0.69
2023-02-02T22:16:19.039Z,0.70
2023-02-02T22:20:33.478Z,0.75
2023-02-02T22:24:38.371Z,0.76
2023-02-02T22:28:41.715Z,0.77
2023-02-02T22:32:44.864Z,0.78
2023-02-02T22:36:48.255Z,0.80
2023-02-02T22:40:53.912Z,0.76
2023-02-02T22:44:57.193Z,0.76
2023-02-02T22:49:00.655Z,0.78
2023-02-02T22:53:04.301Z,0.76
2023-02-02T22:57:08.903Z,0.74
2023-02-02T23:01:13.862Z,0.73
2023-02-02T23:05:20.407Z,0.69
2023-02-02T23:09:23.867Z,0.71
2023-02-02T23:13:28.354Z,0.68
2023-02-02T23:17:32.075Z,0.68
2023-02-02T23:21:35.079Z,0.70
2023-02-02T23:25:38.161Z,0.66
2023-02-02T23:29:43.855Z,0.70
2023-02-02T23:33:47.237Z,0.67
2023-02-02T23:37:50.534Z,0.67
2023-02-02T23:41:54.035Z,0.68
2023-02-02T23:45:59.103Z,0.67
2023-02-02T23:50:04.628Z,0.64
2023-02-02T23:54:10.660Z,0.65
2023-02-02T23:58:14.383Z,0.56
